createdAt,value
2022-09-13T00:00:16.686Z,11.56
2022-09-13T00:01:06.777Z,11.53
2022-09-13T00:01:56.675Z,11.53
2022-09-13T00:02:46.647Z,11.53
2022-09-13T00:03:36.649Z,11.53
2022-09-13T00:04:26.638Z,11.51
2022-09-13T00:05:16.632Z,11.51
2022-09-13T00:06:06.625Z,11.46
2022-09-13T00:06:56.635Z,11.45
2022-09-13T00:07:46.596Z,11.44
2022-09-13T00:08:36.660Z,11.42
2022-09-13T00:09:26.576Z,11.39
2022-09-13T00:10:16.582Z,11.39
2022-09-13T00:11:06.556Z,11.38
2022-09-13T00:11:56.552Z,11.36
2022-09-13T00:12:46.573Z,11.36
2022-09-13T00:13:36.535Z,11.36
2022-09-13T00:14:26.525Z,11.38
2022-09-13T00:15:16.526Z,11.38
2022-09-13T00:16:06.525Z,11.39
2022-09-13T00:16:56.519Z,11.39
2022-09-13T00:17:46.487Z,11.41
2022-09-13T00:18:36.749Z,11.41
2022-09-13T00:19:26.464Z,11.38
2022-09-13T00:20:16.463Z,11.38
2022-09-13T00:21:06.465Z,11.36
2022-09-13T00:21:56.443Z,11.35
2022-09-13T00:22:46.424Z,11.35
2022-09-13T00:23:36.445Z,11.36
2022-09-13T00:24:26.412Z,11.35
2022-09-13T00:25:16.403Z,11.36
2022-09-13T00:26:06.456Z,11.35
2022-09-13T00:26:56.394Z,11.38
2022-09-13T00:27:46.374Z,11.35
2022-09-13T00:28:36.442Z,11.36
2022-09-13T00:29:26.360Z,11.36
2022-09-13T00:30:16.357Z,11.38
2022-09-13T00:31:06.342Z,11.35
2022-09-13T00:31:56.406Z,11.36
2022-09-13T00:32:46.320Z,11.36
2022-09-13T00:33:36.312Z,11.35
2022-09-13T00:34:26.323Z,11.35
2022-09-13T00:35:16.296Z,11.36
2022-09-13T00:36:06.276Z,11.38
2022-09-13T00:36:56.273Z,11.38
2022-09-13T00:37:46.288Z,11.38
2022-09-13T00:38:36.281Z,11.38
2022-09-13T00:39:26.245Z,11.35
2022-09-13T00:40:16.309Z,11.31
2022-09-13T00:41:06.228Z,11.24
2022-09-13T00:41:56.219Z,11.21
2022-09-13T00:42:46.216Z,11.20
2022-09-13T00:43:36.201Z,11.19
2022-09-13T00:44:26.183Z,11.19
2022-09-13T00:45:16.191Z,11.17
2022-09-13T00:46:06.278Z,11.20
2022-09-13T00:46:56.161Z,11.19
2022-09-13T00:47:46.161Z,11.17
2022-09-13T00:48:36.144Z,11.19
2022-09-13T00:49:26.158Z,11.17
2022-09-13T00:50:16.123Z,11.16
2022-09-13T00:51:06.111Z,11.16
2022-09-13T00:51:56.114Z,11.16
2022-09-13T00:52:46.830Z,11.13
2022-09-13T00:53:36.084Z,11.12
2022-09-13T00:54:26.072Z,11.12
2022-09-13T00:55:16.100Z,11.08
2022-09-13T00:56:06.066Z,11.09
2022-09-13T00:56:56.047Z,11.08
2022-09-13T00:57:46.039Z,11.09
2022-09-13T00:58:36.029Z,11.09
2022-09-13T00:59:26.014Z,11.12
2022-09-13T01:00:16.010Z,11.11
2022-09-13T01:01:08.000Z,11.11
2022-09-13T01:01:56.227Z,11.12
2022-09-13T01:02:45.981Z,11.12
2022-09-13T01:03:35.980Z,11.11
2022-09-13T01:04:25.960Z,11.11
2022-09-13T01:05:15.960Z,11.09
2022-09-13T01:06:05.945Z,11.08
2022-09-13T01:06:55.959Z,11.06
2022-09-13T01:07:45.941Z,11.05
2022-09-13T01:08:35.929Z,11.03
2022-09-13T01:09:25.938Z,11.03
2022-09-13T01:10:15.899Z,11.03
2022-09-13T01:11:05.912Z,11.05
2022-09-13T01:11:55.890Z,11.02
2022-09-13T01:12:45.869Z,10.98
2022-09-13T01:13:35.859Z,10.98
2022-09-13T01:14:25.977Z,10.99
2022-09-13T01:15:15.869Z,10.95
2022-09-13T01:16:05.869Z,10.98
2022-09-13T01:16:55.847Z,10.98
2022-09-13T01:17:45.807Z,10.98
2022-09-13T01:18:35.814Z,10.98
2022-09-13T01:19:25.801Z,10.99
2022-09-13T01:20:15.789Z,10.99
2022-09-13T01:21:05.802Z,11.01
2022-09-13T01:21:55.768Z,10.99
2022-09-13T01:22:45.759Z,10.95
2022-09-13T01:23:35.756Z,10.93
2022-09-13T01:24:25.737Z,10.90
2022-09-13T01:25:15.745Z,10.87
2022-09-13T01:26:05.718Z,10.88
2022-09-13T01:26:55.741Z,10.88
2022-09-13T01:27:45.697Z,10.88
2022-09-13T01:28:35.699Z,10.90
2022-09-13T01:29:25.687Z,10.90
2022-09-13T01:30:15.670Z,10.88
2022-09-13T01:31:05.668Z,10.88
2022-09-13T01:31:55.704Z,10.88
2022-09-13T01:32:45.677Z,10.87
2022-09-13T01:33:35.642Z,10.87
2022-09-13T01:34:25.628Z,10.87
2022-09-13T01:35:15.616Z,10.87
2022-09-13T01:36:05.635Z,10.87
2022-09-13T01:36:55.599Z,10.86
2022-09-13T01:37:45.587Z,10.86
2022-09-13T01:38:36.755Z,10.84
2022-09-13T01:39:25.576Z,10.81
2022-09-13T01:40:15.591Z,10.78
2022-09-13T01:41:05.556Z,10.73
2022-09-13T01:41:55.569Z,10.73
2022-09-13T01:42:45.565Z,10.75
2022-09-13T01:43:35.555Z,10.75
2022-09-13T01:44:25.515Z,10.73
2022-09-13T01:45:15.505Z,10.75
2022-09-13T01:46:05.567Z,10.75
2022-09-13T01:46:55.477Z,10.76
2022-09-13T01:47:45.476Z,10.75
2022-09-13T01:48:36.619Z,10.76
2022-09-13T01:49:25.465Z,10.75
2022-09-13T01:50:15.454Z,10.75
2022-09-13T01:51:05.461Z,10.75
2022-09-13T01:51:55.424Z,10.75
2022-09-13T01:52:45.426Z,10.78
2022-09-13T01:53:35.416Z,10.75
2022-09-13T01:54:25.433Z,10.75
2022-09-13T01:55:15.415Z,10.75
2022-09-13T01:56:05.384Z,10.73
2022-09-13T01:56:55.364Z,10.69
2022-09-13T01:57:45.364Z,10.65
2022-09-13T01:58:35.357Z,10.63
2022-09-13T01:59:25.354Z,10.62
2022-09-13T02:00:15.353Z,10.63
2022-09-13T02:01:05.364Z,10.62
2022-09-13T02:01:55.343Z,10.63
2022-09-13T02:02:45.336Z,10.62
2022-09-13T02:03:35.297Z,10.60
2022-09-13T02:04:25.293Z,10.60
2022-09-13T02:05:15.279Z,10.60
2022-09-13T02:06:05.485Z,10.62
2022-09-13T02:06:55.266Z,10.60
2022-09-13T02:07:45.253Z,10.63
2022-09-13T02:08:35.241Z,10.62
2022-09-13T02:09:25.232Z,10.60
2022-09-13T02:10:15.222Z,10.62
2022-09-13T02:11:05.229Z,10.60
2022-09-13T02:11:55.234Z,10.60
2022-09-13T02:12:45.200Z,10.58
2022-09-13T02:13:35.181Z,10.57
2022-09-13T02:14:25.182Z,10.55
2022-09-13T02:15:15.162Z,10.57
2022-09-13T02:16:05.194Z,10.57
2022-09-13T02:16:55.163Z,10.57
2022-09-13T02:17:45.160Z,10.55
2022-09-13T02:18:35.131Z,10.54
2022-09-13T02:19:25.160Z,10.52
2022-09-13T02:20:15.116Z,10.52
2022-09-13T02:21:05.100Z,10.54
2022-09-13T02:21:55.090Z,10.52
2022-09-13T02:22:45.083Z,10.52
2022-09-13T02:23:35.071Z,10.54
2022-09-13T02:24:25.084Z,10.54
2022-09-13T02:25:15.071Z,10.52
2022-09-13T02:26:05.050Z,10.51
2022-09-13T02:26:55.033Z,10.51
2022-09-13T02:27:45.030Z,10.49
2022-09-13T02:28:35.010Z,10.49
2022-09-13T02:29:25.025Z,10.49
2022-09-13T02:30:15.000Z,10.49
2022-09-13T02:31:05.892Z,10.47
2022-09-13T02:31:55.022Z,10.46
2022-09-13T02:32:44.982Z,10.44
2022-09-13T02:33:34.959Z,10.43
2022-09-13T02:34:24.969Z,10.42
2022-09-13T02:35:14.956Z,10.38
2022-09-13T02:36:04.930Z,10.36
2022-09-13T02:36:54.949Z,10.36
2022-09-13T02:37:44.910Z,10.34
2022-09-13T02:38:34.911Z,10.32
2022-09-13T02:39:24.909Z,10.32
2022-09-13T02:40:14.966Z,10.32
2022-09-13T02:41:04.879Z,10.29
2022-09-13T02:41:54.876Z,10.29
2022-09-13T02:42:44.885Z,10.28
2022-09-13T02:43:34.858Z,10.28
2022-09-13T02:44:24.848Z,10.26
2022-09-13T02:45:14.830Z,10.25
2022-09-13T02:46:04.834Z,10.25
2022-09-13T02:46:54.818Z,10.25
2022-09-13T02:47:44.807Z,10.22
2022-09-13T02:48:37.369Z,10.22
2022-09-13T02:49:24.784Z,10.18
2022-09-13T02:50:14.781Z,10.20
2022-09-13T02:51:04.767Z,10.22
2022-09-13T02:51:54.764Z,10.22
2022-09-13T02:52:44.754Z,10.18
2022-09-13T02:53:34.738Z,10.18
2022-09-13T02:54:24.807Z,10.20
2022-09-13T02:55:14.717Z,10.18
2022-09-13T02:56:04.720Z,10.17
2022-09-13T02:56:54.720Z,10.18
2022-09-13T02:57:44.689Z,10.16
2022-09-13T02:58:34.684Z,10.17
2022-09-13T02:59:24.677Z,10.16
2022-09-13T03:00:14.688Z,10.17
2022-09-13T03:01:04.703Z,10.17
2022-09-13T03:01:54.688Z,10.17
2022-09-13T03:02:44.636Z,10.17
2022-09-13T03:03:34.640Z,10.16
2022-09-13T03:04:24.616Z,10.16
2022-09-13T03:05:14.615Z,10.16
2022-09-13T03:06:04.623Z,10.14
2022-09-13T03:06:54.586Z,10.11
2022-09-13T03:07:44.580Z,10.16
2022-09-13T03:08:34.565Z,10.13
2022-09-13T03:09:24.574Z,10.13
2022-09-13T03:10:14.554Z,10.13
2022-09-13T03:11:05.846Z,10.11
2022-09-13T03:11:54.525Z,10.10
2022-09-13T03:12:44.545Z,10.10
2022-09-13T03:13:34.513Z,10.09
2022-09-13T03:14:24.505Z,10.09
2022-09-13T03:15:14.495Z,10.09
2022-09-13T03:16:04.521Z,10.06
2022-09-13T03:16:54.501Z,10.02
2022-09-13T03:17:44.468Z,10.01
2022-09-13T03:18:34.497Z,9.99
2022-09-13T03:19:24.454Z,9.99
2022-09-13T03:20:14.434Z,9.95
2022-09-13T03:21:04.434Z,9.95
2022-09-13T03:21:54.421Z,9.92
2022-09-13T03:22:44.417Z,9.92
2022-09-13T03:23:34.442Z,9.89
2022-09-13T03:24:24.426Z,9.88
2022-09-13T03:25:14.383Z,9.85
2022-09-13T03:26:04.374Z,9.83
2022-09-13T03:26:54.364Z,9.86
2022-09-13T03:27:44.360Z,9.86
2022-09-13T03:28:34.353Z,9.86
2022-09-13T03:29:24.342Z,9.88
2022-09-13T03:30:14.345Z,9.86
2022-09-13T03:31:04.320Z,9.89
2022-09-13T03:31:54.318Z,9.89
2022-09-13T03:32:44.303Z,9.88
2022-09-13T03:33:34.299Z,9.89
2022-09-13T03:34:24.285Z,9.88
2022-09-13T03:35:14.272Z,9.88
2022-09-13T03:36:04.361Z,9.88
2022-09-13T03:36:54.250Z,9.88
2022-09-13T03:37:44.245Z,9.88
2022-09-13T03:38:34.231Z,9.89
2022-09-13T03:39:24.235Z,9.91
2022-09-13T03:40:14.372Z,9.91
2022-09-13T03:41:04.211Z,9.91
2022-09-13T03:41:54.214Z,9.89
2022-09-13T03:42:44.184Z,9.86
2022-09-13T03:43:34.171Z,9.88
2022-09-13T03:44:24.170Z,9.86
2022-09-13T03:45:14.176Z,9.86
2022-09-13T03:46:04.191Z,9.88
2022-09-13T03:46:54.141Z,9.88
2022-09-13T03:47:44.140Z,9.88
2022-09-13T03:48:34.121Z,9.88
2022-09-13T03:49:24.114Z,9.89
2022-09-13T03:50:14.100Z,9.89
2022-09-13T03:51:04.299Z,9.89
2022-09-13T03:51:54.082Z,9.91
2022-09-13T03:52:46.508Z,9.89
2022-09-13T03:53:34.060Z,9.91
2022-09-13T03:54:24.076Z,9.91
2022-09-13T03:55:14.040Z,9.89
2022-09-13T03:56:04.031Z,9.89
2022-09-13T03:56:54.060Z,9.91
2022-09-13T03:57:44.020Z,9.92
2022-09-13T03:58:34.029Z,9.91
2022-09-13T03:59:23.999Z,9.91
2022-09-13T04:00:13.990Z,9.91
2022-09-13T04:01:03.995Z,9.89
2022-09-13T04:01:54.039Z,9.89
2022-09-13T04:02:44.000Z,9.89
2022-09-13T04:03:33.967Z,9.88
2022-09-13T04:04:23.940Z,9.86
2022-09-13T04:05:13.938Z,9.85
2022-09-13T04:06:03.920Z,9.85
2022-09-13T04:06:53.917Z,9.85
2022-09-13T04:07:43.899Z,9.85
2022-09-13T04:08:33.938Z,9.81
2022-09-13T04:09:23.888Z,9.78
2022-09-13T04:10:14.121Z,9.74
2022-09-13T04:11:03.868Z,9.74
2022-09-13T04:11:53.868Z,9.73
2022-09-13T04:12:43.848Z,9.73
2022-09-13T04:13:33.846Z,9.74
2022-09-13T04:14:23.869Z,9.74
2022-09-13T04:15:13.858Z,9.74
2022-09-13T04:16:03.863Z,9.74
2022-09-13T04:16:53.807Z,9.75
2022-09-13T04:17:43.788Z,9.75
2022-09-13T04:18:33.788Z,9.75
2022-09-13T04:19:23.775Z,9.78
2022-09-13T04:20:13.805Z,9.78
2022-09-13T04:21:03.769Z,9.80
2022-09-13T04:21:53.748Z,9.81
2022-09-13T04:22:43.739Z,9.83
2022-09-13T04:23:33.728Z,9.83
2022-09-13T04:24:23.717Z,9.85
2022-09-13T04:25:13.754Z,9.88
2022-09-13T04:26:03.699Z,9.86
2022-09-13T04:26:53.697Z,9.86
2022-09-13T04:27:43.677Z,9.86
2022-09-13T04:28:33.714Z,9.88
2022-09-13T04:29:23.658Z,9.88
2022-09-13T04:30:13.666Z,9.88
2022-09-13T04:31:03.662Z,9.86
2022-09-13T04:31:53.674Z,9.86
2022-09-13T04:32:43.626Z,9.85
2022-09-13T04:33:33.617Z,9.86
2022-09-13T04:34:23.661Z,9.86
2022-09-13T04:35:13.606Z,9.86
2022-09-13T04:36:03.585Z,9.85
2022-09-13T04:36:53.595Z,9.81
2022-09-13T04:37:43.566Z,9.78
2022-09-13T04:38:33.562Z,9.75
2022-09-13T04:39:23.544Z,9.74
2022-09-13T04:40:13.632Z,9.73
2022-09-13T04:41:03.532Z,9.71
2022-09-13T04:41:53.532Z,9.73
2022-09-13T04:42:43.506Z,9.74
2022-09-13T04:43:33.514Z,9.75
2022-09-13T04:44:23.589Z,9.77
2022-09-13T04:45:13.484Z,9.77
2022-09-13T04:46:03.547Z,9.80
2022-09-13T04:46:53.473Z,9.80
2022-09-13T04:47:43.454Z,9.78
2022-09-13T04:48:33.455Z,9.77
2022-09-13T04:49:23.434Z,9.75
2022-09-13T04:50:13.442Z,9.75
2022-09-13T04:51:03.423Z,9.77
2022-09-13T04:51:53.432Z,9.75
2022-09-13T04:52:43.407Z,9.73
2022-09-13T04:53:33.396Z,9.71
2022-09-13T04:54:23.383Z,9.68
2022-09-13T04:55:13.374Z,9.67
2022-09-13T04:56:03.362Z,9.68
2022-09-13T04:56:53.380Z,9.68
2022-09-13T04:57:43.342Z,9.68
2022-09-13T04:58:33.341Z,9.67
2022-09-13T04:59:23.322Z,9.67
2022-09-13T05:00:13.320Z,9.67
2022-09-13T05:01:03.337Z,9.67
2022-09-13T05:01:53.327Z,9.68
2022-09-13T05:02:43.997Z,9.68
2022-09-13T05:03:33.281Z,9.68
2022-09-13T05:04:23.261Z,9.68
2022-09-13T05:05:13.261Z,9.67
2022-09-13T05:06:03.252Z,9.68
2022-09-13T05:06:53.243Z,9.68
2022-09-13T05:07:43.240Z,9.71
2022-09-13T05:08:33.274Z,9.70
2022-09-13T05:09:23.211Z,9.71
2022-09-13T05:10:16.388Z,9.68
2022-09-13T05:11:04.191Z,9.68
2022-09-13T05:11:53.192Z,9.65
2022-09-13T05:12:43.171Z,9.65
2022-09-13T05:13:33.171Z,9.67
2022-09-13T05:14:23.402Z,9.70
2022-09-13T05:15:13.151Z,9.71
2022-09-13T05:16:03.200Z,9.73
2022-09-13T05:16:53.130Z,9.73
2022-09-13T05:17:43.123Z,9.73
2022-09-13T05:18:33.120Z,9.71
2022-09-13T05:19:23.100Z,9.70
2022-09-13T05:20:13.147Z,9.71
2022-09-13T05:21:03.090Z,9.70
2022-09-13T05:21:53.076Z,9.70
2022-09-13T05:22:43.061Z,9.71
2022-09-13T05:23:33.062Z,9.71
2022-09-13T05:24:23.045Z,9.73
2022-09-13T05:25:13.049Z,9.73
2022-09-13T05:26:03.040Z,9.73
2022-09-13T05:26:53.020Z,9.71
2022-09-13T05:27:43.000Z,9.71
2022-09-13T05:28:33.029Z,9.70
2022-09-13T05:29:23.005Z,9.70
2022-09-13T05:30:12.985Z,9.71
2022-09-13T05:31:03.005Z,9.71
2022-09-13T05:31:52.959Z,9.73
2022-09-13T05:32:42.958Z,9.73
2022-09-13T05:33:32.937Z,9.73
2022-09-13T05:34:22.962Z,9.74
2022-09-13T05:35:12.935Z,9.74
2022-09-13T05:36:02.908Z,9.77
2022-09-13T05:36:54.492Z,9.77
2022-09-13T05:37:42.897Z,9.77
2022-09-13T05:38:32.888Z,9.78
2022-09-13T05:39:48.392Z,9.81
2022-09-13T05:40:13.942Z,9.80
2022-09-13T05:41:02.862Z,9.80
2022-09-13T05:41:52.849Z,9.81
2022-09-13T05:42:42.838Z,9.81
2022-09-13T05:43:32.827Z,9.83
2022-09-13T05:44:22.817Z,9.85
2022-09-13T05:45:12.807Z,9.88
2022-09-13T05:46:02.915Z,9.88
2022-09-13T05:46:52.799Z,9.88
2022-09-13T05:47:42.786Z,9.89
2022-09-13T05:48:32.775Z,9.89
2022-09-13T05:49:22.766Z,9.88
2022-09-13T05:50:26.556Z,9.88
2022-09-13T05:51:03.955Z,9.88
2022-09-13T05:51:52.757Z,9.86
2022-09-13T05:52:42.727Z,9.83
2022-09-13T05:53:32.769Z,9.81
2022-09-13T05:54:22.708Z,9.80
2022-09-13T05:55:12.695Z,9.80
2022-09-13T05:56:02.696Z,9.80
2022-09-13T05:56:52.708Z,9.78
2022-09-13T05:57:42.667Z,9.80
2022-09-13T05:58:32.666Z,9.81
2022-09-13T05:59:22.675Z,9.81
2022-09-13T06:00:12.646Z,9.81
2022-09-13T06:01:02.637Z,9.81
2022-09-13T06:01:52.676Z,9.80
2022-09-13T06:02:42.652Z,9.78
2022-09-13T06:03:32.604Z,9.77
2022-09-13T06:04:22.825Z,9.80
2022-09-13T06:05:12.623Z,9.81
2022-09-13T06:06:02.576Z,9.81
2022-09-13T06:06:52.570Z,9.83
2022-09-13T06:07:44.013Z,9.85
2022-09-13T06:08:32.553Z,9.85
2022-09-13T06:09:22.542Z,9.88
2022-09-13T06:10:12.557Z,9.91
2022-09-13T06:11:02.518Z,9.91
2022-09-13T06:11:52.513Z,9.92
2022-09-13T06:12:42.502Z,9.95
2022-09-13T06:13:32.703Z,9.96
2022-09-13T06:14:22.482Z,9.99
2022-09-13T06:15:12.490Z,10.02
2022-09-13T06:16:02.543Z,10.04
2022-09-13T06:16:52.460Z,10.06
2022-09-13T06:17:42.448Z,10.06
2022-09-13T06:18:32.441Z,10.07
2022-09-13T06:19:22.422Z,10.10
2022-09-13T06:20:12.423Z,10.13
2022-09-13T06:21:02.413Z,10.11
2022-09-13T06:21:52.424Z,10.14
2022-09-13T06:22:42.382Z,10.17
2022-09-13T06:23:32.381Z,10.20
2022-09-13T06:24:22.371Z,10.24
2022-09-13T06:25:12.381Z,10.22
2022-09-13T06:26:02.373Z,10.24
2022-09-13T06:26:52.341Z,10.25
2022-09-13T06:27:42.349Z,10.25
2022-09-13T06:28:37.160Z,10.28
2022-09-13T06:29:23.311Z,10.28
2022-09-13T06:30:12.324Z,10.29
2022-09-13T06:31:02.387Z,10.31
2022-09-13T06:31:52.291Z,10.35
2022-09-13T06:32:42.270Z,10.42
2022-09-13T06:33:32.270Z,10.46
2022-09-13T06:34:22.462Z,10.49
2022-09-13T06:35:12.250Z,10.52
2022-09-13T06:36:02.284Z,10.52
2022-09-13T06:36:52.229Z,10.54
2022-09-13T06:37:42.231Z,10.54
2022-09-13T06:38:32.220Z,10.55
2022-09-13T06:39:22.277Z,10.55
2022-09-13T06:40:12.540Z,10.57
2022-09-13T06:41:02.189Z,10.60
2022-09-13T06:41:52.239Z,10.62
2022-09-13T06:42:42.160Z,10.65
2022-09-13T06:43:32.158Z,10.69
2022-09-13T06:44:22.151Z,10.72
2022-09-13T06:45:12.164Z,10.76
2022-09-13T06:46:02.195Z,10.78
2022-09-13T06:46:52.126Z,10.83
2022-09-13T06:47:42.108Z,10.84
2022-09-13T06:48:32.099Z,10.88
2022-09-13T06:49:22.095Z,10.91
2022-09-13T06:50:12.088Z,10.93
2022-09-13T06:51:02.068Z,10.95
2022-09-13T06:51:52.116Z,10.95
2022-09-13T06:52:42.048Z,10.94
2022-09-13T06:53:32.048Z,10.94
2022-09-13T06:54:22.048Z,10.94
2022-09-13T06:55:12.855Z,10.95
2022-09-13T06:56:02.019Z,10.99
2022-09-13T06:56:52.008Z,10.99
2022-09-13T06:57:42.223Z,11.01
2022-09-13T06:58:31.997Z,11.03
2022-09-13T06:59:21.979Z,11.06
2022-09-13T07:00:11.977Z,11.09
2022-09-13T07:01:02.012Z,11.13
2022-09-13T07:01:51.977Z,11.13
2022-09-13T07:02:41.937Z,11.13
2022-09-13T07:03:31.962Z,11.13
2022-09-13T07:04:21.932Z,11.17
2022-09-13T07:05:11.976Z,11.19
2022-09-13T07:06:01.896Z,11.20
2022-09-13T07:06:51.894Z,11.26
2022-09-13T07:07:41.876Z,11.30
2022-09-13T07:08:31.876Z,11.36
2022-09-13T07:09:21.884Z,11.39
2022-09-13T07:10:11.860Z,11.45
2022-09-13T07:11:02.046Z,11.49
2022-09-13T07:11:51.857Z,11.57
2022-09-13T07:12:41.830Z,11.64
2022-09-13T07:13:31.825Z,11.72
2022-09-13T07:14:21.825Z,11.78
2022-09-13T07:15:11.806Z,11.87
2022-09-13T07:16:01.827Z,11.90
2022-09-13T07:16:51.853Z,11.93
2022-09-13T07:17:41.765Z,11.96
2022-09-13T07:18:31.767Z,12.00
2022-09-13T07:19:21.752Z,12.05
2022-09-13T07:20:11.786Z,12.04
2022-09-13T07:21:01.737Z,12.07
2022-09-13T07:21:51.726Z,12.11
2022-09-13T07:22:41.754Z,12.16
2022-09-13T07:23:31.704Z,12.22
2022-09-13T07:24:21.705Z,12.26
2022-09-13T07:25:11.703Z,12.30
2022-09-13T07:26:01.675Z,12.36
2022-09-13T07:26:51.674Z,12.38
2022-09-13T07:27:41.654Z,12.43
2022-09-13T07:28:35.235Z,12.49
2022-09-13T07:29:21.655Z,12.54
2022-09-13T07:30:11.634Z,12.59
2022-09-13T07:31:01.654Z,12.66
2022-09-13T07:31:51.614Z,12.71
2022-09-13T07:32:41.603Z,12.77
2022-09-13T07:33:31.594Z,12.84
2022-09-13T07:34:21.795Z,12.89
2022-09-13T07:35:11.624Z,12.96
2022-09-13T07:36:01.573Z,13.04
2022-09-13T07:36:51.554Z,13.09
2022-09-13T07:37:41.560Z,13.14
2022-09-13T07:38:31.526Z,13.19
2022-09-13T07:39:22.925Z,13.25
2022-09-13T07:40:11.670Z,13.31
2022-09-13T07:41:01.510Z,13.38
2022-09-13T07:41:51.505Z,13.47
2022-09-13T07:42:41.513Z,13.53
2022-09-13T07:43:31.473Z,13.62
2022-09-13T07:44:21.484Z,13.68
2022-09-13T07:45:11.454Z,13.69
2022-09-13T07:46:01.595Z,13.73
2022-09-13T07:46:51.444Z,13.80
2022-09-13T07:47:41.444Z,13.86
2022-09-13T07:48:33.622Z,13.88
2022-09-13T07:49:21.416Z,13.93
2022-09-13T07:50:11.417Z,13.98
2022-09-13T07:51:01.412Z,14.01
2022-09-13T07:51:51.651Z,14.05
2022-09-13T07:52:41.372Z,14.11
2022-09-13T07:53:31.359Z,14.17
2022-09-13T07:54:21.585Z,14.24
2022-09-13T07:55:11.342Z,14.27
2022-09-13T07:56:01.332Z,14.30
2022-09-13T07:56:51.330Z,14.34
2022-09-13T07:57:41.315Z,14.39
2022-09-13T07:58:31.339Z,14.41
2022-09-13T07:59:25.855Z,14.44
2022-09-13T08:00:12.288Z,14.49
2022-09-13T08:01:01.320Z,14.54
2022-09-13T08:01:51.448Z,14.59
2022-09-13T08:02:41.310Z,14.66
2022-09-13T08:03:31.252Z,14.72
2022-09-13T08:04:21.242Z,14.82
2022-09-13T08:05:11.252Z,14.87
2022-09-13T08:06:01.222Z,14.98
2022-09-13T08:06:51.212Z,15.07
2022-09-13T08:07:41.202Z,15.12
2022-09-13T08:08:31.202Z,15.18
2022-09-13T08:09:21.191Z,15.20
2022-09-13T08:10:11.170Z,15.23
2022-09-13T08:11:01.201Z,15.27
2022-09-13T08:11:51.158Z,15.31
2022-09-13T08:12:41.151Z,15.37
2022-09-13T08:13:31.132Z,15.40
2022-09-13T08:14:21.131Z,15.44
2022-09-13T08:15:11.141Z,15.46
2022-09-13T08:16:01.152Z,15.49
2022-09-13T08:16:51.097Z,15.52
2022-09-13T08:17:41.090Z,15.56
2022-09-13T08:18:31.089Z,15.59
2022-09-13T08:19:21.070Z,15.66
2022-09-13T08:20:11.070Z,15.68
2022-09-13T08:21:01.102Z,15.70
2022-09-13T08:21:51.041Z,15.70
2022-09-13T08:22:41.032Z,15.71
2022-09-13T08:23:31.020Z,15.71
2022-09-13T08:24:21.026Z,15.73
2022-09-13T08:25:11.001Z,15.74
2022-09-13T08:26:01.008Z,15.74
2022-09-13T08:26:51.012Z,15.76
2022-09-13T08:27:40.980Z,15.77
2022-09-13T08:28:30.969Z,15.84
2022-09-13T08:29:20.970Z,15.89
2022-09-13T08:30:10.946Z,15.95
2022-09-13T08:31:00.991Z,15.98
2022-09-13T08:31:50.931Z,16.03
2022-09-13T08:32:40.951Z,16.06
2022-09-13T08:33:30.939Z,16.07
2022-09-13T08:34:20.910Z,16.10
2022-09-13T08:35:10.889Z,16.13
2022-09-13T08:36:00.897Z,16.17
2022-09-13T08:36:50.880Z,16.25
2022-09-13T08:37:40.870Z,16.29
2022-09-13T08:38:30.960Z,16.32
2022-09-13T08:39:20.861Z,16.40
2022-09-13T08:40:10.865Z,16.42
2022-09-13T08:41:00.850Z,16.48
2022-09-13T08:41:50.819Z,16.55
2022-09-13T08:42:40.821Z,16.62
2022-09-13T08:43:30.800Z,16.70
2022-09-13T08:44:20.844Z,16.81
2022-09-13T08:45:10.786Z,16.91
2022-09-13T08:46:00.820Z,16.99
2022-09-13T08:46:50.769Z,17.05
2022-09-13T08:47:40.804Z,17.09
2022-09-13T08:48:30.760Z,17.14
2022-09-13T08:49:20.755Z,17.17
2022-09-13T08:50:10.959Z,17.21
2022-09-13T08:51:00.729Z,17.27
2022-09-13T08:51:50.761Z,17.30
2022-09-13T08:52:40.709Z,17.39
2022-09-13T08:53:30.748Z,17.51
2022-09-13T08:54:20.732Z,17.63
2022-09-13T08:55:10.680Z,17.79
2022-09-13T08:56:00.700Z,17.89
2022-09-13T08:56:50.666Z,17.96
2022-09-13T08:57:40.669Z,18.05
2022-09-13T08:58:30.671Z,18.16
2022-09-13T08:59:20.648Z,18.21
2022-09-13T09:00:10.628Z,18.25
2022-09-13T09:01:00.685Z,18.36
2022-09-13T09:01:50.676Z,18.44
2022-09-13T09:02:40.616Z,18.53
2022-09-13T09:03:30.588Z,18.62
2022-09-13T09:04:20.588Z,18.68
2022-09-13T09:05:10.588Z,18.76
2022-09-13T09:06:00.579Z,18.86
2022-09-13T09:06:50.568Z,18.87
2022-09-13T09:07:40.588Z,18.89
2022-09-13T09:08:30.549Z,18.94
2022-09-13T09:09:20.540Z,19.05
2022-09-13T09:10:10.534Z,19.13
2022-09-13T09:11:00.528Z,19.23
2022-09-13T09:11:50.519Z,19.31
2022-09-13T09:12:40.515Z,19.35
2022-09-13T09:13:30.541Z,19.42
2022-09-13T09:14:20.551Z,19.50
2022-09-13T09:15:10.513Z,19.60
2022-09-13T09:16:00.499Z,19.76
2022-09-13T09:16:50.449Z,19.89
2022-09-13T09:17:40.474Z,19.98
2022-09-13T09:18:30.440Z,20.08
2022-09-13T09:19:20.656Z,20.16
2022-09-13T09:20:10.439Z,20.19
2022-09-13T09:21:00.409Z,20.22
2022-09-13T09:21:50.407Z,20.27
2022-09-13T09:22:40.405Z,20.33
2022-09-13T09:23:30.378Z,20.34
2022-09-13T09:24:20.384Z,20.38
2022-09-13T09:25:10.577Z,20.46
2022-09-13T09:26:00.359Z,20.57
2022-09-13T09:26:50.354Z,20.66
2022-09-13T09:27:40.348Z,20.81
2022-09-13T09:28:30.329Z,20.93
2022-09-13T09:29:24.704Z,21.03
2022-09-13T09:30:10.338Z,21.15
2022-09-13T09:31:00.388Z,21.22
2022-09-13T09:31:50.291Z,21.30
2022-09-13T09:32:40.286Z,21.42
2022-09-13T09:33:30.269Z,21.46
2022-09-13T09:34:20.271Z,21.56
2022-09-13T09:35:10.259Z,21.63
2022-09-13T09:36:00.459Z,21.68
2022-09-13T09:36:50.236Z,21.74
2022-09-13T09:37:40.228Z,21.79
2022-09-13T09:38:30.468Z,21.83
2022-09-13T09:39:20.208Z,21.86
2022-09-13T09:40:10.316Z,21.90
2022-09-13T09:41:00.188Z,21.93
2022-09-13T09:41:50.178Z,22.01
2022-09-13T09:42:40.186Z,22.06
2022-09-13T09:43:30.173Z,22.14
2022-09-13T09:44:20.208Z,22.26
2022-09-13T09:45:10.139Z,22.33
2022-09-13T09:46:00.223Z,22.38
2022-09-13T09:46:50.126Z,22.46
2022-09-13T09:47:40.112Z,22.54
2022-09-13T09:48:30.107Z,22.66
2022-09-13T09:49:20.098Z,22.72
2022-09-13T09:50:10.287Z,22.78
2022-09-13T09:51:00.074Z,22.82
2022-09-13T09:51:50.071Z,22.84
2022-09-13T09:52:40.056Z,22.86
2022-09-13T09:53:34.875Z,22.89
2022-09-13T09:54:21.105Z,22.94
2022-09-13T09:55:10.023Z,23.03
2022-09-13T09:56:00.060Z,23.14
2022-09-13T09:56:50.018Z,23.25
2022-09-13T09:57:39.999Z,23.31
2022-09-13T09:58:29.988Z,23.37
2022-09-13T09:59:20.204Z,23.32
2022-09-13T10:00:10.248Z,23.32
2022-09-13T10:00:59.996Z,23.32
2022-09-13T10:01:49.997Z,23.31
2022-09-13T10:02:39.976Z,23.34
2022-09-13T10:03:29.926Z,23.37
2022-09-13T10:04:19.918Z,23.42
2022-09-13T10:05:09.926Z,23.45
2022-09-13T10:05:59.919Z,23.52
2022-09-13T10:06:49.891Z,23.59
2022-09-13T10:07:39.884Z,23.69
2022-09-13T10:08:29.883Z,23.78
2022-09-13T10:09:19.857Z,23.86
2022-09-13T10:10:09.838Z,23.94
2022-09-13T10:10:59.852Z,23.97
2022-09-13T10:11:50.052Z,24.04
2022-09-13T10:12:39.812Z,24.00
2022-09-13T10:13:31.907Z,24.00
2022-09-13T10:14:19.798Z,24.04
2022-09-13T10:15:09.791Z,23.99
2022-09-13T10:15:59.781Z,23.97
2022-09-13T10:16:49.836Z,24.02
2022-09-13T10:17:39.977Z,24.09
2022-09-13T10:18:45.728Z,24.19
2022-09-13T10:19:20.737Z,24.29
2022-09-13T10:20:09.737Z,24.34
2022-09-13T10:20:59.737Z,24.41
2022-09-13T10:21:49.701Z,24.45
2022-09-13T10:22:39.688Z,24.48
2022-09-13T10:23:29.701Z,24.49
2022-09-13T10:24:19.686Z,24.53
2022-09-13T10:25:09.660Z,24.59
2022-09-13T10:25:59.655Z,24.61
2022-09-13T10:26:49.641Z,24.67
2022-09-13T10:27:39.632Z,24.75
2022-09-13T10:28:29.627Z,24.80
2022-09-13T10:29:19.641Z,24.90
2022-09-13T10:30:09.607Z,24.97
2022-09-13T10:30:59.641Z,25.04
2022-09-13T10:31:49.590Z,25.07
2022-09-13T10:32:39.580Z,25.09
2022-09-13T10:33:29.560Z,25.12
2022-09-13T10:34:19.551Z,25.12
2022-09-13T10:35:09.590Z,25.17
2022-09-13T10:35:59.532Z,25.19
2022-09-13T10:36:52.643Z,25.22
2022-09-13T10:37:39.513Z,25.22
2022-09-13T10:38:29.502Z,25.26
2022-09-13T10:39:19.508Z,25.29
2022-09-13T10:40:09.593Z,25.31
2022-09-13T10:40:59.541Z,25.36
2022-09-13T10:41:49.528Z,25.38
2022-09-13T10:42:39.463Z,25.39
2022-09-13T10:43:29.452Z,25.45
2022-09-13T10:44:19.438Z,25.46
2022-09-13T10:45:09.429Z,25.51
2022-09-13T10:45:59.459Z,25.54
2022-09-13T10:46:49.440Z,25.54
2022-09-13T10:47:39.412Z,25.57
2022-09-13T10:48:29.389Z,25.60
2022-09-13T10:49:19.389Z,25.64